createdAt,value
2023-04-06T00:00:19.608Z,18.33
2023-04-06T00:01:21.806Z,17.08
2023-04-06T00:02:24.032Z,19.52
2023-04-06T00:03:26.479Z,18.75
2023-04-06T00:04:28.775Z,18.58
2023-04-06T00:05:31.698Z,20.73
2023-04-06T00:06:34.216Z,15.85
2023-04-06T00:07:36.530Z,16.42
2023-04-06T00:08:38.894Z,16.15
2023-04-06T00:09:41.281Z,16.45
2023-04-06T00:10:43.570Z,15.02
2023-04-06T00:11:45.903Z,18.45
2023-04-06T00:12:48.163Z,18.17
2023-04-06T00:13:50.377Z,17.58
2023-04-06T00:14:52.638Z,19.77
2023-04-06T00:15:54.901Z,17.88
2023-04-06T00:16:57.198Z,15.90
2023-04-06T00:17:59.546Z,15.50
2023-04-06T00:19:01.819Z,16.65
2023-04-06T00:20:04.411Z,17.63
2023-04-06T00:21:06.670Z,17.15
2023-04-06T00:22:08.897Z,18.30
2023-04-06T00:23:11.230Z,15.90
2023-04-06T00:24:13.412Z,20.00
2023-04-06T00:25:16.364Z,15.00
2023-04-06T00:26:19.870Z,15.57
2023-04-06T00:27:23.086Z,16.00
2023-04-06T00:28:27.181Z,18.38
2023-04-06T00:29:29.363Z,18.67
2023-04-06T00:30:31.696Z,16.42
2023-04-06T00:31:34.261Z,21.25
2023-04-06T00:32:37.049Z,20.33
2023-04-06T00:33:39.359Z,18.95
2023-04-06T00:34:41.595Z,21.92
2023-04-06T00:35:43.954Z,20.20
2023-04-06T00:36:46.333Z,17.42
2023-04-06T00:37:51.113Z,20.00
2023-04-06T00:38:53.408Z,20.42
2023-04-06T00:39:56.013Z,15.23
2023-04-06T00:40:58.685Z,15.77
2023-04-06T00:42:01.953Z,18.25
2023-04-06T00:43:04.163Z,18.25
2023-04-06T00:44:06.438Z,17.60
2023-04-06T00:45:09.388Z,16.30
2023-04-06T00:46:11.744Z,16.75
2023-04-06T00:47:14.881Z,16.40
2023-04-06T00:48:17.694Z,17.02
2023-04-06T00:49:19.959Z,17.90
2023-04-06T00:50:22.288Z,17.77
2023-04-06T00:51:24.597Z,15.43
2023-04-06T00:52:26.819Z,14.80
2023-04-06T00:53:30.274Z,15.13
2023-04-06T00:54:34.309Z,17.55
2023-04-06T00:55:37.019Z,17.45
2023-04-06T00:56:39.894Z,16.17
2023-04-06T00:57:42.184Z,15.93
2023-04-06T00:58:45.409Z,19.20
2023-04-06T00:59:47.885Z,21.48
2023-04-06T01:00:50.318Z,20.67
2023-04-06T01:01:55.649Z,18.08
2023-04-06T01:03:09.296Z,22.05
2023-04-06T01:04:18.137Z,18.00
2023-04-06T01:05:21.084Z,18.25
2023-04-06T01:06:27.684Z,18.88
2023-04-06T01:07:36.918Z,19.95
2023-04-06T01:08:44.553Z,21.63
2023-04-06T01:09:55.164Z,20.10
2023-04-06T01:11:04.496Z,17.45
2023-04-06T01:12:06.989Z,18.45
2023-04-06T01:13:10.835Z,18.20
2023-04-06T01:14:27.735Z,24.42
2023-04-06T01:15:36.235Z,19.63
2023-04-06T01:16:39.079Z,20.58
2023-04-06T01:17:46.033Z,20.85
2023-04-06T01:18:51.935Z,23.27
2023-04-06T01:19:58.691Z,24.08
2023-04-06T01:21:05.567Z,18.85
2023-04-06T01:22:08.218Z,15.60
2023-04-06T01:23:33.429Z,17.75
2023-04-06T01:24:35.916Z,16.02
2023-04-06T01:25:59.133Z,19.60
2023-04-06T01:27:05.705Z,17.17
2023-04-06T01:28:21.960Z,18.20
2023-04-06T01:29:47.271Z,19.33
2023-04-06T01:30:55.771Z,17.83
2023-04-06T01:32:21.829Z,17.95
2023-04-06T01:33:26.553Z,17.60
2023-04-06T01:34:36.884Z,18.50
2023-04-06T01:35:41.555Z,17.23
2023-04-06T01:36:51.223Z,17.48
2023-04-06T01:38:01.382Z,18.88
2023-04-06T01:39:08.055Z,18.73
2023-04-06T01:40:14.742Z,18.92
2023-04-06T01:41:22.062Z,17.92
2023-04-06T01:42:28.901Z,18.73
2023-04-06T01:43:31.529Z,19.90
2023-04-06T01:44:38.311Z,17.52
2023-04-06T01:45:46.009Z,17.85
2023-04-06T01:46:53.595Z,17.75
2023-04-06T01:47:56.324Z,16.60
2023-04-06T01:49:01.474Z,16.42
2023-04-06T01:50:15.531Z,18.55
2023-04-06T01:51:21.662Z,15.48
2023-04-06T01:52:31.035Z,14.23
2023-04-06T01:53:33.440Z,16.13
2023-04-06T01:54:40.869Z,19.60
2023-04-06T01:55:47.529Z,15.07
2023-04-06T01:57:02.289Z,17.75
2023-04-06T01:58:08.600Z,18.73
2023-04-06T01:59:14.125Z,16.77
2023-04-06T02:02:08.606Z,16.02
2023-04-06T02:03:14.656Z,16.63
2023-04-06T02:04:17.280Z,17.17
2023-04-06T02:05:22.040Z,14.10
2023-04-06T02:06:26.287Z,17.60
2023-04-06T02:07:28.551Z,22.58
2023-04-06T02:08:31.496Z,16.20
2023-04-06T02:09:33.885Z,18.23
2023-04-06T02:10:36.406Z,16.98
2023-04-06T02:11:47.047Z,17.67
2023-04-06T02:12:49.753Z,18.52
2023-04-06T02:13:58.362Z,19.90
2023-04-06T02:15:05.279Z,15.73
2023-04-06T02:16:07.750Z,19.23
2023-04-06T02:17:09.952Z,15.32
2023-04-06T02:18:13.270Z,18.50
2023-04-06T02:19:16.942Z,14.85
2023-04-06T02:20:19.508Z,18.80
2023-04-06T02:21:21.777Z,17.73
2023-04-06T02:22:23.968Z,14.90
2023-04-06T02:23:27.570Z,13.98
2023-04-06T02:24:29.840Z,14.57
2023-04-06T02:25:32.106Z,14.13
2023-04-06T02:26:34.357Z,17.33
2023-04-06T02:27:37.138Z,14.85
2023-04-06T02:28:39.388Z,16.02
2023-04-06T02:29:42.155Z,15.50
2023-04-06T02:30:44.568Z,15.55
2023-04-06T02:31:47.634Z,13.10
2023-04-06T02:32:49.944Z,15.98
2023-04-06T02:33:52.776Z,19.17
2023-04-06T02:34:55.326Z,17.45
2023-04-06T02:35:58.081Z,17.40
2023-04-06T02:37:00.390Z,14.50
2023-04-06T02:38:02.714Z,14.00
2023-04-06T02:39:05.294Z,12.65
2023-04-06T02:40:08.424Z,15.35
2023-04-06T02:41:10.651Z,14.07
2023-04-06T02:42:16.086Z,17.30
2023-04-06T02:43:20.219Z,15.40
2023-04-06T02:44:23.405Z,17.42
2023-04-06T02:45:25.829Z,14.00
2023-04-06T02:46:28.145Z,15.50
2023-04-06T02:47:30.642Z,13.60
2023-04-06T02:48:32.999Z,16.42
2023-04-06T02:49:35.509Z,14.15
2023-04-06T02:50:37.805Z,12.60
2023-04-06T02:51:42.649Z,13.25
2023-04-06T02:53:01.812Z,16.05
2023-04-06T02:54:04.156Z,17.95
2023-04-06T02:55:08.535Z,14.70
2023-04-06T02:56:10.852Z,19.50
2023-04-06T02:57:23.677Z,16.92
2023-04-06T02:58:25.962Z,16.33
2023-04-06T02:59:31.102Z,16.48
2023-04-06T03:00:56.209Z,13.98
2023-04-06T03:01:58.519Z,14.75
2023-04-06T03:03:01.225Z,14.30
2023-04-06T03:04:03.848Z,17.42
2023-04-06T03:05:06.658Z,15.70
2023-04-06T03:06:13.311Z,14.18
2023-04-06T03:07:16.071Z,15.20
2023-04-06T03:08:18.841Z,17.33
2023-04-06T03:09:22.690Z,17.85
2023-04-06T03:10:25.008Z,16.30
2023-04-06T03:11:27.736Z,19.50
2023-04-06T03:12:30.089Z,17.52
2023-04-06T03:13:51.339Z,16.23
2023-04-06T03:14:53.597Z,15.73
2023-04-06T03:15:56.348Z,17.25
2023-04-06T03:16:58.723Z,20.20
2023-04-06T03:18:02.285Z,15.40
2023-04-06T03:19:12.891Z,15.73
2023-04-06T03:20:15.413Z,14.43
2023-04-06T03:21:17.640Z,17.92
2023-04-06T03:22:23.855Z,14.98
2023-04-06T03:23:26.195Z,15.85
2023-04-06T03:24:33.441Z,15.60
2023-04-06T03:25:36.012Z,17.08
2023-04-06T03:26:42.036Z,15.15
2023-04-06T03:27:44.787Z,17.23
2023-04-06T03:28:50.659Z,15.13
2023-04-06T03:29:55.631Z,15.15
2023-04-06T03:31:05.546Z,20.27
2023-04-06T03:32:31.577Z,20.02
2023-04-06T03:33:33.931Z,16.13
2023-04-06T03:34:36.413Z,23.80
2023-04-06T03:35:38.896Z,28.05
2023-04-06T03:36:41.369Z,21.40
2023-04-06T03:37:43.583Z,22.58
2023-04-06T03:38:46.096Z,19.65
2023-04-06T03:39:50.070Z,23.40
2023-04-06T03:40:57.160Z,19.83
2023-04-06T03:42:02.585Z,20.63
2023-04-06T03:43:13.033Z,23.45
2023-04-06T03:44:16.397Z,26.17
2023-04-06T03:45:20.420Z,26.73
2023-04-06T03:46:26.028Z,25.92
2023-04-06T03:47:30.890Z,29.13
2023-04-06T03:48:37.656Z,22.50
2023-04-06T03:49:42.165Z,22.15
2023-04-06T03:50:46.985Z,22.27
2023-04-06T03:51:49.292Z,22.45
2023-04-06T03:52:51.710Z,20.30
2023-04-06T03:53:54.001Z,19.85
2023-04-06T03:54:56.244Z,18.95
2023-04-06T03:55:58.597Z,19.05
2023-04-06T03:57:01.305Z,18.08
2023-04-06T03:58:03.578Z,20.08
2023-04-06T03:59:06.443Z,21.77
2023-04-06T04:00:09.952Z,22.83
2023-04-06T04:01:15.210Z,18.92
2023-04-06T04:02:17.695Z,17.67
2023-04-06T04:03:20.391Z,19.08
2023-04-06T04:04:22.978Z,18.80
2023-04-06T04:05:26.355Z,19.35
2023-04-06T04:06:29.048Z,16.75
2023-04-06T04:07:31.541Z,24.20
2023-04-06T04:08:33.851Z,15.60
2023-04-06T04:09:38.079Z,16.48
2023-04-06T04:10:40.417Z,18.25
2023-04-06T04:11:42.719Z,15.77
2023-04-06T04:12:45.367Z,21.15
2023-04-06T04:13:47.617Z,20.27
2023-04-06T04:14:49.885Z,19.02
2023-04-06T04:15:52.246Z,25.13
2023-04-06T04:16:54.541Z,23.13
2023-04-06T04:17:56.919Z,15.18
2023-04-06T04:18:59.781Z,15.57
2023-04-06T04:20:02.182Z,16.67
2023-04-06T04:21:04.730Z,19.63
2023-04-06T04:22:07.546Z,15.95
2023-04-06T04:23:13.801Z,21.20
2023-04-06T04:24:16.233Z,18.17
2023-04-06T04:25:18.476Z,16.83
2023-04-06T04:26:24.359Z,16.33
2023-04-06T04:27:26.676Z,18.23
2023-04-06T04:28:28.957Z,20.15
2023-04-06T04:29:31.991Z,17.40
2023-04-06T04:30:38.784Z,18.38
2023-04-06T04:31:45.220Z,18.77
2023-04-06T04:32:52.560Z,21.10
2023-04-06T04:33:58.795Z,22.02
2023-04-06T04:35:05.883Z,20.90
2023-04-06T04:36:12.610Z,21.40
2023-04-06T04:37:18.247Z,18.23
2023-04-06T04:38:26.219Z,20.70
2023-04-06T04:39:31.997Z,20.70
2023-04-06T04:40:39.136Z,24.30
2023-04-06T04:41:47.618Z,24.40
2023-04-06T04:42:51.887Z,31.23
2023-04-06T04:44:01.171Z,33.13
2023-04-06T04:45:03.658Z,32.63
2023-04-06T04:46:13.270Z,28.25
2023-04-06T04:47:18.431Z,29.60
2023-04-06T04:48:22.434Z,28.67
2023-04-06T04:49:32.319Z,26.15
2023-04-06T04:50:34.903Z,22.83
2023-04-06T04:51:37.482Z,31.45
2023-04-06T04:52:44.603Z,29.65
2023-04-06T04:53:51.442Z,26.63
2023-04-06T04:54:58.662Z,24.33
2023-04-06T04:56:04.164Z,25.02
2023-04-06T04:57:06.456Z,25.30
2023-04-06T04:58:17.647Z,26.63
2023-04-06T04:59:32.586Z,26.15
2023-04-06T05:00:41.842Z,26.70
2023-04-06T05:01:54.112Z,26.88
2023-04-06T05:02:58.077Z,29.30
2023-04-06T05:04:06.401Z,27.67
2023-04-06T05:05:09.412Z,28.67
2023-04-06T05:06:13.501Z,27.08
2023-04-06T05:07:19.422Z,25.08
2023-04-06T05:08:21.802Z,24.83
2023-04-06T05:09:24.337Z,27.27
2023-04-06T05:10:26.670Z,27.23
2023-04-06T05:11:33.940Z,31.25
2023-04-06T05:12:38.300Z,26.38
2023-04-06T05:13:43.254Z,22.50
2023-04-06T05:14:51.017Z,22.48
2023-04-06T05:15:55.500Z,22.55
2023-04-06T05:17:01.958Z,23.70
2023-04-06T05:18:05.740Z,29.20
2023-04-06T05:19:10.480Z,26.05
2023-04-06T05:20:17.981Z,22.85
2023-04-06T05:21:26.681Z,34.08
2023-04-06T05:22:40.245Z,25.80
2023-04-06T05:23:45.797Z,26.52
2023-04-06T05:24:48.098Z,28.95
2023-04-06T05:25:51.151Z,27.80
2023-04-06T05:26:57.311Z,30.65
2023-04-06T05:28:00.808Z,34.00
2023-04-06T05:29:07.209Z,32.63
2023-04-06T05:30:12.654Z,36.15
2023-04-06T05:31:19.899Z,35.03
2023-04-06T05:32:25.663Z,34.80
2023-04-06T05:33:28.412Z,31.58
2023-04-06T05:34:41.234Z,33.50
2023-04-06T05:35:43.732Z,35.70
2023-04-06T05:36:49.044Z,33.83
2023-04-06T05:37:54.797Z,30.67
2023-04-06T05:39:00.357Z,32.00
2023-04-06T05:40:24.280Z,31.05
2023-04-06T05:41:27.174Z,33.85
2023-04-06T05:42:37.609Z,41.00
2023-04-06T05:43:39.845Z,32.53
2023-04-06T05:44:42.189Z,37.35
2023-04-06T05:45:48.563Z,33.42
2023-04-06T05:46:50.846Z,29.38
2023-04-06T05:47:53.493Z,32.72
2023-04-06T05:49:01.810Z,29.77
2023-04-06T05:50:07.827Z,33.05
2023-04-06T05:51:13.884Z,27.52
2023-04-06T05:52:23.151Z,28.70
2023-04-06T05:53:27.193Z,27.15
2023-04-06T05:54:33.188Z,21.60
2023-04-06T05:55:37.916Z,20.77
2023-04-06T05:56:47.739Z,20.08
2023-04-06T05:57:50.658Z,20.70
2023-04-06T05:58:54.766Z,26.70
2023-04-06T06:00:04.560Z,21.23
2023-04-06T06:01:21.541Z,20.85
2023-04-06T06:02:24.747Z,21.55
2023-04-06T06:03:29.639Z,22.48
2023-04-06T06:04:33.482Z,21.40
2023-04-06T06:05:36.019Z,21.35
2023-04-06T06:06:46.617Z,21.15
2023-04-06T06:07:54.748Z,21.17
2023-04-06T06:09:01.600Z,18.80
2023-04-06T06:10:05.387Z,21.85
2023-04-06T06:11:12.152Z,17.30
2023-04-06T06:12:14.844Z,20.00
2023-04-06T06:13:17.439Z,23.70
2023-04-06T06:14:19.980Z,22.25
2023-04-06T06:15:22.525Z,20.98
2023-04-06T06:16:24.855Z,22.65
2023-04-06T06:17:27.868Z,19.00
2023-04-06T06:18:30.532Z,19.83
2023-04-06T06:19:32.873Z,20.80
2023-04-06T06:20:38.244Z,23.40
2023-04-06T06:21:41.408Z,23.40
2023-04-06T06:22:43.610Z,22.13
2023-04-06T06:23:51.236Z,20.40
2023-04-06T06:24:55.880Z,19.85
2023-04-06T06:25:59.346Z,18.95
2023-04-06T06:27:02.630Z,20.95
2023-04-06T06:28:07.682Z,23.02
2023-04-06T06:29:10.281Z,22.95
2023-04-06T06:30:14.933Z,22.27
2023-04-06T06:31:19.406Z,23.20
2023-04-06T06:32:21.682Z,20.13
2023-04-06T06:33:27.174Z,18.13
2023-04-06T06:34:30.840Z,18.95
2023-04-06T06:35:35.705Z,23.08
2023-04-06T06:36:40.354Z,21.40
2023-04-06T06:37:45.336Z,20.52
2023-04-06T06:38:50.321Z,17.23
2023-04-06T06:39:55.452Z,19.02
2023-04-06T06:40:58.828Z,18.58
2023-04-06T06:42:03.957Z,20.80
2023-04-06T06:43:23.279Z,20.23
2023-04-06T06:44:34.164Z,24.15
2023-04-06T06:45:36.431Z,18.73
2023-04-06T06:46:38.714Z,23.02
2023-04-06T06:47:42.369Z,18.90
2023-04-06T06:48:47.542Z,19.45
2023-04-06T06:49:49.858Z,24.38
2023-04-06T06:50:52.132Z,18.35
2023-04-06T06:51:54.347Z,17.70
2023-04-06T06:52:56.576Z,23.70
2023-04-06T06:53:58.770Z,18.52
2023-04-06T06:55:01.325Z,20.42
2023-04-06T06:56:03.857Z,19.02
2023-04-06T06:57:06.723Z,21.75
2023-04-06T06:58:09.133Z,18.30
2023-04-06T06:59:13.458Z,18.85
2023-04-06T07:00:16.024Z,20.85
2023-04-06T07:01:20.450Z,17.80
2023-04-06T07:02:23.085Z,17.58
2023-04-06T07:03:25.470Z,19.38
2023-04-06T07:04:27.812Z,18.60
2023-04-06T07:05:30.441Z,18.42
2023-04-06T07:06:36.838Z,17.37
2023-04-06T07:07:39.171Z,17.38
2023-04-06T07:08:41.393Z,22.73
2023-04-06T07:09:44.173Z,23.42
2023-04-06T07:10:46.648Z,17.58
2023-04-06T07:11:50.071Z,24.67
2023-04-06T07:12:52.287Z,19.65
2023-04-06T07:13:54.553Z,29.02
2023-04-06T07:14:56.964Z,23.45
2023-04-06T07:15:59.299Z,18.08
2023-04-06T07:17:01.812Z,22.10
2023-04-06T07:18:04.466Z,21.88
2023-04-06T07:19:06.891Z,17.83
2023-04-06T07:20:13.130Z,23.77
2023-04-06T07:21:17.950Z,21.58
2023-04-06T07:22:20.343Z,19.05
2023-04-06T07:23:22.531Z,25.55
2023-04-06T07:24:24.778Z,18.27
2023-04-06T07:25:27.038Z,15.40
2023-04-06T07:26:29.213Z,20.33
2023-04-06T07:27:31.441Z,14.30
2023-04-06T07:28:33.697Z,17.30
2023-04-06T07:29:37.685Z,17.40
2023-04-06T07:30:39.982Z,17.23
2023-04-06T07:31:42.566Z,18.58
2023-04-06T07:32:44.937Z,19.77
2023-04-06T07:33:47.974Z,17.88
2023-04-06T07:34:50.878Z,18.70
2023-04-06T07:35:54.022Z,14.82
2023-04-06T07:36:57.566Z,21.52
2023-04-06T07:38:00.213Z,15.20
2023-04-06T07:39:02.893Z,17.38
2023-04-06T07:40:05.689Z,11.70
2023-04-06T07:41:08.023Z,13.85
2023-04-06T07:42:11.068Z,14.27
2023-04-06T07:43:13.553Z,17.27
2023-04-06T07:44:16.006Z,11.98
2023-04-06T07:45:19.282Z,11.85
2023-04-06T07:46:22.529Z,11.00
2023-04-06T07:47:25.101Z,10.07
2023-04-06T07:48:27.295Z,16.77
2023-04-06T07:49:29.639Z,8.30
2023-04-06T07:50:32.323Z,9.93
2023-04-06T07:51:39.256Z,8.80
2023-04-06T07:52:41.718Z,9.35
2023-04-06T07:53:47.831Z,9.23
2023-04-06T07:54:50.471Z,9.45
2023-04-06T07:55:52.737Z,9.02
2023-04-06T07:56:54.990Z,9.80
2023-04-06T07:57:57.251Z,10.30
2023-04-06T07:58:59.740Z,13.30
2023-04-06T08:00:02.131Z,10.02
2023-04-06T08:01:14.481Z,10.15
2023-04-06T08:02:16.741Z,11.75
2023-04-06T08:03:21.716Z,9.57
2023-04-06T08:04:24.312Z,11.63
2023-04-06T08:05:26.904Z,13.32
2023-04-06T08:06:29.638Z,10.32
2023-04-06T08:07:31.969Z,11.40
2023-04-06T08:08:34.287Z,11.45
2023-04-06T08:09:36.542Z,12.10
2023-04-06T08:10:38.922Z,13.45
2023-04-06T08:11:41.356Z,12.10
2023-04-06T08:12:43.536Z,12.27
2023-04-06T08:13:45.751Z,11.70
2023-04-06T08:14:48.776Z,13.50
2023-04-06T08:15:51.061Z,11.57
2023-04-06T08:16:53.377Z,12.75
2023-04-06T08:17:58.152Z,15.77
2023-04-06T08:19:00.497Z,13.38
2023-04-06T08:20:04.400Z,11.43
2023-04-06T08:21:06.856Z,11.00
2023-04-06T08:22:09.122Z,13.25
2023-04-06T08:23:12.000Z,11.75
2023-04-06T08:24:15.470Z,13.20
2023-04-06T08:25:17.878Z,12.88
2023-04-06T08:26:20.830Z,11.00
2023-04-06T08:27:23.077Z,11.60
2023-04-06T08:28:25.603Z,13.02
2023-04-06T08:29:27.804Z,11.13
2023-04-06T08:30:30.626Z,15.13
2023-04-06T08:31:32.988Z,15.20
2023-04-06T08:32:35.283Z,12.35
2023-04-06T08:33:39.905Z,9.15
2023-04-06T08:34:42.097Z,9.68
2023-04-06T08:35:44.404Z,10.02
2023-04-06T08:36:47.680Z,12.07
2023-04-06T08:37:49.944Z,13.05
2023-04-06T08:38:52.169Z,14.55
2023-04-06T08:39:54.386Z,10.98
2023-04-06T08:40:56.915Z,10.95
2023-04-06T08:42:00.913Z,10.38
2023-04-06T08:43:09.349Z,9.70
2023-04-06T08:44:12.534Z,13.25
2023-04-06T08:45:16.683Z,9.95
2023-04-06T08:46:19.494Z,11.55
2023-04-06T08:47:24.625Z,10.18
2023-04-06T08:48:28.022Z,9.93
2023-04-06T08:49:30.398Z,15.32
2023-04-06T08:50:33.846Z,10.10
2023-04-06T08:51:38.262Z,10.07
2023-04-06T08:52:41.513Z,12.13
2023-04-06T08:53:43.989Z,10.40
2023-04-06T08:54:46.424Z,14.27
2023-04-06T08:55:49.093Z,11.45
2023-04-06T08:56:53.196Z,10.82
2023-04-06T08:57:56.658Z,12.35
2023-04-06T08:58:59.699Z,12.40
2023-04-06T09:00:02.295Z,13.88
2023-04-06T09:01:11.674Z,14.05
2023-04-06T09:02:18.462Z,9.82
2023-04-06T09:03:22.258Z,13.52
2023-04-06T09:04:24.938Z,13.05
2023-04-06T09:05:27.376Z,10.60
2023-04-06T09:06:29.561Z,9.90
2023-04-06T09:07:31.946Z,9.45
2023-04-06T09:08:35.646Z,10.35
2023-04-06T09:09:38.149Z,10.85
2023-04-06T09:10:43.753Z,10.63
2023-04-06T09:11:51.112Z,10.25
2023-04-06T09:13:05.216Z,13.00
2023-04-06T09:14:07.673Z,11.52
2023-04-06T09:15:22.144Z,10.73
2023-04-06T09:16:26.601Z,11.10
2023-04-06T09:17:31.330Z,10.98
2023-04-06T09:18:34.677Z,9.50
2023-04-06T09:19:49.543Z,12.02
2023-04-06T09:21:06.263Z,12.75
2023-04-06T09:22:08.620Z,9.95
2023-04-06T09:23:20.292Z,10.15
2023-04-06T09:24:26.979Z,9.70
2023-04-06T09:25:29.406Z,24.75
2023-04-06T09:26:34.475Z,12.43
2023-04-06T09:27:38.826Z,14.50
2023-04-06T09:28:52.101Z,9.55
2023-04-06T09:30:10.910Z,10.43
2023-04-06T09:31:18.057Z,13.02
2023-04-06T09:32:20.339Z,9.68
2023-04-06T09:33:24.399Z,8.65
2023-04-06T09:34:26.697Z,11.80
2023-04-06T09:35:31.279Z,10.13
2023-04-06T09:36:35.876Z,11.52
2023-04-06T09:37:38.135Z,10.75
2023-04-06T09:38:58.881Z,10.10
2023-04-06T09:40:06.247Z,12.40
2023-04-06T09:41:08.501Z,10.73
2023-04-06T09:42:10.935Z,11.77
2023-04-06T09:43:13.175Z,10.15
2023-04-06T09:44:15.515Z,9.35
2023-04-06T09:45:17.875Z,10.25
2023-04-06T09:46:23.436Z,8.60
2023-04-06T09:47:29.279Z,11.93
2023-04-06T09:48:35.349Z,8.82
2023-04-06T09:49:38.597Z,9.02
2023-04-06T09:50:41.308Z,8.40
2023-04-06T09:51:50.208Z,7.93
2023-04-06T09:52:56.075Z,9.65
2023-04-06T09:54:04.035Z,9.27
2023-04-06T09:55:08.958Z,9.25
2023-04-06T09:56:17.205Z,6.57
2023-04-06T09:57:37.918Z,10.90
2023-04-06T09:58:42.353Z,8.82
2023-04-06T09:59:53.517Z,10.15
2023-04-06T10:01:10.765Z,7.90
2023-04-06T10:02:29.960Z,9.13
2023-04-06T10:03:50.877Z,8.15
2023-04-06T10:04:59.343Z,8.55
2023-04-06T10:06:06.972Z,9.20
2023-04-06T10:07:13.132Z,10.10
2023-04-06T10:08:17.365Z,7.78
2023-04-06T10:09:25.993Z,8.90
2023-04-06T10:10:29.744Z,8.90
2023-04-06T10:11:32.216Z,9.20
2023-04-06T10:12:34.707Z,8.77
2023-04-06T10:13:37.076Z,9.85
2023-04-06T10:14:42.002Z,12.30
2023-04-06T10:15:45.062Z,13.57
2023-04-06T10:16:49.618Z,11.88
2023-04-06T10:17:52.855Z,9.38
2023-04-06T10:19:10.837Z,9.13
2023-04-06T10:20:19.011Z,11.05
2023-04-06T10:21:26.469Z,9.23
2023-04-06T10:22:45.333Z,10.20
2023-04-06T10:23:53.525Z,9.55
2023-04-06T10:24:55.736Z,10.75
2023-04-06T10:25:59.747Z,12.68
2023-04-06T10:27:03.969Z,10.95
2023-04-06T10:28:10.477Z,10.13
2023-04-06T10:29:12.823Z,9.68
2023-04-06T10:30:17.918Z,10.70
2023-04-06T10:31:28.095Z,9.02
2023-04-06T10:32:37.561Z,9.00
2023-04-06T10:33:41.446Z,9.50
2023-04-06T10:34:43.671Z,12.00
2023-04-06T10:35:46.492Z,11.00
2023-04-06T10:36:49.195Z,7.97
2023-04-06T10:38:03.229Z,10.15
2023-04-06T10:39:07.251Z,10.65
2023-04-06T10:40:30.234Z,15.38
